Jacinto, Nebraska
Current Conditions -  °F | °C
As of 10:15 AM on Wednesday 26 Nov 2014 (Local Time) from KIBM Reporting Station
Light Snow Light Snow  
Wind Chill: 21°   Ceiling: 4600
Heat Index: 27°   Visibility: 7mi
Dew Point: 26°   Wind: 6mph
Humidity: 94%   Direction: 360°N
Pressure: 30.21"   Gusts: NA
Location:  41.202°N, 103.47°W
Report Text: KIBM 261715Z AUTO 36005KT 7SM -SN SCT010 SCT018 OVC046 M03/M04 A3021 RMK AO2 T10271036
Loading
Personal Weather Stations






























Interactive Weather Map New forecast layout! Learn more

10-Day Weather Forecast

Advertisements
Track Severe Weather on mobile